sensor_id;sensor_type;location;lat;lon;timestamp;pressure;altitude;pressure_sealevel;temperature;humidity
30598;BME280;17365;48.878;8.334;2023-04-20T00:01:01;100146.66;;;5.24;76.89
30598;BME280;17365;48.878;8.334;2023-04-20T00:03:27;100134.94;;;5.37;75.07
30598;BME280;17365;48.878;8.334;2023-04-20T00:05:52;100128.56;;;5.57;74.15
30598;BME280;17365;48.878;8.334;2023-04-20T00:08:18;100127.94;;;5.69;73.31
30598;BME280;17365;48.878;8.334;2023-04-20T00:10:43;100130.41;;;5.64;73.25
30598;BME280;17365;48.878;8.334;2023-04-20T00:13:09;100120.25;;;5.70;72.72
30598;BME280;17365;48.878;8.334;2023-04-20T00:15:34;100119.06;;;5.18;75.60
30598;BME280;17365;48.878;8.334;2023-04-20T00:17:59;100114.84;;;5.20;74.47
30598;BME280;17365;48.878;8.334;2023-04-20T00:20:25;100106.44;;;5.28;74.20
30598;BME280;17365;48.878;8.334;2023-04-20T00:22:50;100107.81;;;5.51;73.05
30598;BME280;17365;48.878;8.334;2023-04-20T00:25:16;100097.44;;;5.46;72.13
30598;BME280;17365;48.878;8.334;2023-04-20T00:27:41;100110.63;;;5.22;73.56
30598;BME280;17365;48.878;8.334;2023-04-20T00:30:06;100089.56;;;5.03;74.38
30598;BME280;17365;48.878;8.334;2023-04-20T00:32:32;100090.47;;;5.05;74.60
30598;BME280;17365;48.878;8.334;2023-04-20T00:34:57;100093.69;;;4.96;75.53
30598;BME280;17365;48.878;8.334;2023-04-20T00:37:22;100082.97;;;5.14;74.81
30598;BME280;17365;48.878;8.334;2023-04-20T00:39:49;100080.44;;;5.15;74.73
30598;BME280;17365;48.878;8.334;2023-04-20T00:42:15;100077.88;;;5.15;74.83
30598;BME280;17365;48.878;8.334;2023-04-20T00:44:40;100072.78;;;5.18;74.73
30598;BME280;17365;48.878;8.334;2023-04-20T00:47:05;100070.06;;;5.11;74.71
30598;BME280;17365;48.878;8.334;2023-04-20T00:49:30;100068.00;;;4.97;75.83
30598;BME280;17365;48.878;8.334;2023-04-20T00:51:59;100066.88;;;5.21;74.23
30598;BME280;17365;48.878;8.334;2023-04-20T00:54:27;100062.94;;;4.99;75.27
30598;BME280;17365;48.878;8.334;2023-04-20T00:56:53;100060.53;;;5.07;74.58
30598;BME280;17365;48.878;8.334;2023-04-20T00:59:20;100055.75;;;4.86;75.17
30598;BME280;17365;48.878;8.334;2023-04-20T01:01:45;100055.06;;;4.93;75.18
30598;BME280;17365;48.878;8.334;2023-04-20T01:04:11;100057.41;;;4.48;77.35
30598;BME280;17365;48.878;8.334;2023-04-20T01:06:36;100050.97;;;4.30;78.49
30598;BME280;17365;48.878;8.334;2023-04-20T01:09:02;100045.91;;;4.33;77.89
30598;BME280;17365;48.878;8.334;2023-04-20T01:11:27;100050.72;;;4.21;78.99
30598;BME280;17365;48.878;8.334;2023-04-20T01:13:52;100039.31;;;4.43;77.43
30598;BME280;17365;48.878;8.334;2023-04-20T01:16:17;100041.28;;;4.53;77.04
30598;BME280;17365;48.878;8.334;2023-04-20T01:18:46;100040.22;;;4.45;77.23
30598;BME280;17365;48.878;8.334;2023-04-20T01:21:12;100032.72;;;4.20;78.19
30598;BME280;17365;48.878;8.334;2023-04-20T01:23:38;100023.53;;;4.29;78.11
30598;BME280;17365;48.878;8.334;2023-04-20T01:26:06;100021.53;;;4.52;77.07
30598;BME280;17365;48.878;8.334;2023-04-20T01:28:32;100018.09;;;4.17;77.92
30598;BME280;17365;48.878;8.334;2023-04-20T01:30:57;100020.09;;;4.29;78.65
30598;BME280;17365;48.878;8.334;2023-04-20T01:33:22;100015.13;;;4.35;78.03
30598;BME280;17365;48.878;8.334;2023-04-20T01:35:47;100004.56;;;3.91;79.79
30598;BME280;17365;48.878;8.334;2023-04-20T01:38:19;99999.16;;;4.14;79.20
30598;BME280;17365;48.878;8.334;2023-04-20T01:40:45;100005.13;;;4.46;77.55
30598;BME280;17365;48.878;8.334;2023-04-20T01:43:10;99996.31;;;4.36;77.78
30598;BME280;17365;48.878;8.334;2023-04-20T01:45:35;99993.00;;;4.07;79.60
30598;BME280;17365;48.878;8.334;2023-04-20T01:48:01;99997.22;;;4.38;77.88
30598;BME280;17365;48.878;8.334;2023-04-20T01:50:26;99990.81;;;4.21;78.59
30598;BME280;17365;48.878;8.334;2023-04-20T01:52:51;99996.13;;;4.28;78.34
30598;BME280;17365;48.878;8.334;2023-04-20T01:55:16;99990.34;;;4.37;78.06
30598;BME280;17365;48.878;8.334;2023-04-20T01:57:42;99994.34;;;4.26;78.53
30598;BME280;17365;48.878;8.334;2023-04-20T02:00:08;99990.72;;;4.18;79.25
30598;BME280;17365;48.878;8.334;2023-04-20T02:02:34;99987.22;;;4.14;78.80
30598;BME280;17365;48.878;8.334;2023-04-20T02:04:59;99984.06;;;4.26;78.27
30598;BME280;17365;48.878;8.334;2023-04-20T02:07:24;99975.78;;;4.36;77.65
30598;BME280;17365;48.878;8.334;2023-04-20T02:09:52;99986.69;;;4.27;78.27
30598;BME280;17365;48.878;8.334;2023-04-20T02:12:18;99981.50;;;3.93;78.92
30598;BME280;17365;48.878;8.334;2023-04-20T02:14:43;99966.59;;;3.78;80.27
30598;BME280;17365;48.878;8.334;2023-04-20T02:17:08;99977.19;;;3.90;79.14
30598;BME280;17365;48.878;8.334;2023-04-20T02:19:34;99969.31;;;3.84;79.18
30598;BME280;17365;48.878;8.334;2023-04-20T02:22:00;99975.22;;;3.82;80.00
30598;BME280;17365;48.878;8.334;2023-04-20T02:24:25;99967.19;;;3.68;80.70
30598;BME280;17365;48.878;8.334;2023-04-20T02:26:50;99962.72;;;3.94;79.83
30598;BME280;17365;48.878;8.334;2023-04-20T02:29:16;99957.28;;;3.82;79.61
30598;BME280;17365;48.878;8.334;2023-04-20T02:31:41;99962.97;;;4.03;79.46
30598;BME280;17365;48.878;8.334;2023-04-20T02:34:06;99963.69;;;3.97;78.65
30598;BME280;17365;48.878;8.334;2023-04-20T02:36:33;99955.03;;;4.28;77.71
30598;BME280;17365;48.878;8.334;2023-04-20T02:38:58;99947.38;;;4.30;77.10
30598;BME280;17365;48.878;8.334;2023-04-20T02:41:23;99940.50;;;4.29;77.51
30598;BME280;17365;48.878;8.334;2023-04-20T02:43:48;99938.59;;;4.20;77.56
30598;BME280;17365;48.878;8.334;2023-04-20T02:46:14;99944.22;;;4.42;76.75
30598;BME280;17365;48.878;8.334;2023-04-20T02:48:39;99936.63;;;4.45;76.19
30598;BME280;17365;48.878;8.334;2023-04-20T02:51:05;99935.09;;;4.18;76.98
30598;BME280;17365;48.878;8.334;2023-04-20T02:53:31;99941.22;;;4.23;76.43
30598;BME280;17365;48.878;8.334;2023-04-20T02:55:56;99938.66;;;4.23;76.48
30598;BME280;17365;48.878;8.334;2023-04-20T02:58:21;99934.59;;;4.31;76.39
30598;BME280;17365;48.878;8.334;2023-04-20T03:00:46;99930.56;;;4.43;75.66
30598;BME280;17365;48.878;8.334;2023-04-20T03:03:11;99931.03;;;4.26;75.42
30598;BME280;17365;48.878;8.334;2023-04-20T03:05:36;99924.47;;;4.39;75.56
30598;BME280;17365;48.878;8.334;2023-04-20T03:08:02;99931.38;;;4.42;74.85
30598;BME280;17365;48.878;8.334;2023-04-20T03:10:29;99930.50;;;4.41;74.62
30598;BME280;17365;48.878;8.334;2023-04-20T03:12:55;99928.13;;;4.49;74.58
30598;BME280;17365;48.878;8.334;2023-04-20T03:15:20;99921.50;;;4.58;74.15
30598;BME280;17365;48.878;8.334;2023-04-20T03:17:46;99920.44;;;4.49;73.85
30598;BME280;17365;48.878;8.334;2023-04-20T03:20:11;99925.69;;;4.53;73.80
30598;BME280;17365;48.878;8.334;2023-04-20T03:22:37;99922.91;;;4.44;73.67
30598;BME280;17365;48.878;8.334;2023-04-20T03:25:02;99921.19;;;4.45;74.89
30598;BME280;17365;48.878;8.334;2023-04-20T03:27:27;99914.53;;;4.17;75.43
30598;BME280;17365;48.878;8.334;2023-04-20T03:29:52;99915.97;;;4.42;75.13
30598;BME280;17365;48.878;8.334;2023-04-20T03:32:18;99911.00;;;4.12;75.22
30598;BME280;17365;48.878;8.334;2023-04-20T03:34:43;99911.53;;;4.34;74.74
30598;BME280;17365;48.878;8.334;2023-04-20T03:37:08;99905.41;;;4.29;75.12
30598;BME280;17365;48.878;8.334;2023-04-20T03:39:33;99915.63;;;4.26;76.01
30598;BME280;17365;48.878;8.334;2023-04-20T03:41:58;99918.06;;;3.86;77.76
30598;BME280;17365;48.878;8.334;2023-04-20T03:44:24;99924.94;;;3.87;78.54
30598;BME280;17365;48.878;8.334;2023-04-20T03:46:49;99915.00;;;3.06;82.62
30598;BME280;17365;48.878;8.334;2023-04-20T03:49:15;99916.47;;;2.96;84.31
30598;BME280;17365;48.878;8.334;2023-04-20T03:51:40;99909.13;;;2.80;85.43
30598;BME280;17365;48.878;8.334;2023-04-20T03:54:07;99908.03;;;3.00;84.78
30598;BME280;17365;48.878;8.334;2023-04-20T03:56:32;99904.13;;;3.44;82.65
30598;BME280;17365;48.878;8.334;2023-04-20T03:58:57;99908.97;;;3.65;80.43
30598;BME280;17365;48.878;8.334;2023-04-20T04:01:22;99908.50;;;3.80;78.89
30598;BME280;17365;48.878;8.334;2023-04-20T04:03:47;99901.00;;;3.88;79.37
30598;BME280;17365;48.878;8.334;2023-04-20T04:06:13;99905.44;;;3.29;82.31
30598;BME280;17365;48.878;8.334;2023-04-20T04:08:38;99909.53;;;3.24;83.26
30598;BME280;17365;48.878;8.334;2023-04-20T04:11:03;99913.13;;;2.99;84.02
30598;BME280;17365;48.878;8.334;2023-04-20T04:13:28;99902.97;;;2.73;87.01
30598;BME280;17365;48.878;8.334;2023-04-20T04:15:53;99906.34;;;3.01;86.35
30598;BME280;17365;48.878;8.334;2023-04-20T04:18:19;99898.56;;;2.98;85.79
30598;BME280;17365;48.878;8.334;2023-04-20T04:20:45;99904.81;;;2.77;86.23
30598;BME280;17365;48.878;8.334;2023-04-20T04:23:10;99903.38;;;2.58;88.17
30598;BME280;17365;48.878;8.334;2023-04-20T04:25:38;99895.38;;;2.76;87.11
30598;BME280;17365;48.878;8.334;2023-04-20T04:28:04;99900.41;;;3.33;84.28
30598;BME280;17365;48.878;8.334;2023-04-20T04:30:33;99896.69;;;3.54;82.51
30598;BME280;17365;48.878;8.334;2023-04-20T04:32:58;99908.75;;;3.26;83.24
30598;BME280;17365;48.878;8.334;2023-04-20T04:35:24;99904.59;;;3.00;84.57
30598;BME280;17365;48.878;8.334;2023-04-20T04:37:49;99913.28;;;3.05;85.17
30598;BME280;17365;48.878;8.334;2023-04-20T04:40:16;99919.88;;;3.27;84.50
30598;BME280;17365;48.878;8.334;2023-04-20T04:42:42;99915.63;;;3.27;83.74
30598;BME280;17365;48.878;8.334;2023-04-20T04:45:09;99909.31;;;3.46;81.87
30598;BME280;17365;48.878;8.334;2023-04-20T04:47:35;99909.56;;;3.55;82.16
30598;BME280;17365;48.878;8.334;2023-04-20T04:50:03;99914.94;;;3.33;82.77
30598;BME280;17365;48.878;8.334;2023-04-20T04:52:30;99914.06;;;3.02;84.72
30598;BME280;17365;48.878;8.334;2023-04-20T04:54:56;99906.25;;;2.98;86.24
30598;BME280;17365;48.878;8.334;2023-04-20T04:57:21;99906.88;;;3.19;84.61
30598;BME280;17365;48.878;8.334;2023-04-20T04:59:46;99900.34;;;3.30;84.31
30598;BME280;17365;48.878;8.334;2023-04-20T05:02:11;99906.50;;;3.37;83.83
30598;BME280;17365;48.878;8.334;2023-04-20T05:04:36;99907.44;;;3.73;81.67
30598;BME280;17365;48.878;8.334;2023-04-20T05:07:02;99903.34;;;3.80;81.26
30598;BME280;17365;48.878;8.334;2023-04-20T05:09:27;99899.09;;;4.15;79.58
30598;BME280;17365;48.878;8.334;2023-04-20T05:11:57;99903.69;;;4.64;78.01
30598;BME280;17365;48.878;8.334;2023-04-20T05:14:22;99905.03;;;4.50;78.63
30598;BME280;17365;48.878;8.334;2023-04-20T05:16:47;99900.53;;;4.78;76.99
30598;BME280;17365;48.878;8.334;2023-04-20T05:19:12;99902.47;;;4.13;79.88
30598;BME280;17365;48.878;8.334;2023-04-20T05:21:38;99904.72;;;4.74;78.53
30598;BME280;17365;48.878;8.334;2023-04-20T05:24:03;99899.44;;;5.07;76.44
30598;BME280;17365;48.878;8.334;2023-04-20T05:26:28;99897.81;;;5.11;75.72
30598;BME280;17365;48.878;8.334;2023-04-20T05:28:53;99897.59;;;5.00;75.46
30598;BME280;17365;48.878;8.334;2023-04-20T05:31:18;99899.84;;;4.47;77.81
30598;BME280;17365;48.878;8.334;2023-04-20T05:33:44;99896.81;;;5.06;76.99
30598;BME280;17365;48.878;8.334;2023-04-20T05:36:09;99891.19;;;4.81;78.67
30598;BME280;17365;48.878;8.334;2023-04-20T05:38:35;99886.59;;;5.52;76.24
30598;BME280;17365;48.878;8.334;2023-04-20T05:41:00;99889.81;;;5.41;75.39
30598;BME280;17365;48.878;8.334;2023-04-20T05:43:25;99881.13;;;5.82;73.01
30598;BME280;17365;48.878;8.334;2023-04-20T05:45:51;99880.53;;;5.97;72.36
30598;BME280;17365;48.878;8.334;2023-04-20T05:48:16;99872.44;;;5.77;74.24
30598;BME280;17365;48.878;8.334;2023-04-20T05:50:41;99876.63;;;6.21;72.30
30598;BME280;17365;48.878;8.334;2023-04-20T05:53:07;99880.41;;;5.90;73.28
30598;BME280;17365;48.878;8.334;2023-04-20T05:55:32;99875.78;;;6.22;72.77
30598;BME280;17365;48.878;8.334;2023-04-20T05:57:57;99880.19;;;6.29;72.43
30598;BME280;17365;48.878;8.334;2023-04-20T06:00:22;99877.91;;;6.49;70.78
30598;BME280;17365;48.878;8.334;2023-04-20T06:02:48;99879.88;;;6.68;70.47
30598;BME280;17365;48.878;8.334;2023-04-20T06:05:16;99879.50;;;6.40;71.31
30598;BME280;17365;48.878;8.334;2023-04-20T06:07:42;99882.53;;;6.13;69.70
30598;BME280;17365;48.878;8.334;2023-04-20T06:10:07;99873.00;;;6.09;72.14
30598;BME280;17365;48.878;8.334;2023-04-20T06:12:33;99880.88;;;6.17;72.01
30598;BME280;17365;48.878;8.334;2023-04-20T06:14:58;99877.19;;;6.57;70.73
30598;BME280;17365;48.878;8.334;2023-04-20T06:17:24;99877.19;;;6.57;69.85
30598;BME280;17365;48.878;8.334;2023-04-20T06:19:49;99875.06;;;6.92;70.23
30598;BME280;17365;48.878;8.334;2023-04-20T06:22:15;99876.13;;;6.45;70.79
30598;BME280;17365;48.878;8.334;2023-04-20T06:24:41;99872.25;;;6.74;70.30
30598;BME280;17365;48.878;8.334;2023-04-20T06:27:06;99873.00;;;6.67;69.33
30598;BME280;17365;48.878;8.334;2023-04-20T06:29:32;99876.03;;;7.02;69.27
30598;BME280;17365;48.878;8.334;2023-04-20T06:31:57;99873.03;;;7.40;68.84
30598;BME280;17365;48.878;8.334;2023-04-20T06:34:22;99872.44;;;6.89;67.82
30598;BME280;17365;48.878;8.334;2023-04-20T06:36:47;99866.63;;;7.03;69.00
30598;BME280;17365;48.878;8.334;2023-04-20T06:39:12;99875.41;;;6.55;67.56
30598;BME280;17365;48.878;8.334;2023-04-20T06:41:39;99871.72;;;6.99;67.75
30598;BME280;17365;48.878;8.334;2023-04-20T06:44:05;99864.91;;;7.06;67.44
30598;BME280;17365;48.878;8.334;2023-04-20T06:46:30;99879.19;;;7.52;65.97
30598;BME280;17365;48.878;8.334;2023-04-20T06:48:55;99868.97;;;7.60;65.80
30598;BME280;17365;48.878;8.334;2023-04-20T06:51:21;99872.97;;;7.35;66.34
30598;BME280;17365;48.878;8.334;2023-04-20T06:53:46;99867.97;;;7.49;66.10
30598;BME280;17365;48.878;8.334;2023-04-20T06:56:11;99866.16;;;7.39;66.27
30598;BME280;17365;48.878;8.334;2023-04-20T06:58:36;99861.31;;;7.72;65.06
30598;BME280;17365;48.878;8.334;2023-04-20T07:01:02;99869.34;;;7.15;66.71
30598;BME280;17365;48.878;8.334;2023-04-20T07:03:27;99871.25;;;7.34;66.58
30598;BME280;17365;48.878;8.334;2023-04-20T07:05:52;99869.75;;;7.56;66.23
30598;BME280;17365;48.878;8.334;2023-04-20T07:08:17;99863.94;;;7.75;65.03
30598;BME280;17365;48.878;8.334;2023-04-20T07:10:43;99857.13;;;7.85;65.54
30598;BME280;17365;48.878;8.334;2023-04-20T07:13:08;99859.75;;;7.93;64.27
30598;BME280;17365;48.878;8.334;2023-04-20T07:15:33;99854.44;;;7.73;64.18
30598;BME280;17365;48.878;8.334;2023-04-20T07:17:58;99856.19;;;7.77;64.74
30598;BME280;17365;48.878;8.334;2023-04-20T07:20:23;99851.44;;;8.29;63.16
30598;BME280;17365;48.878;8.334;2023-04-20T07:22:49;99847.09;;;8.25;63.77
30598;BME280;17365;48.878;8.334;2023-04-20T07:25:14;99853.09;;;8.21;63.14
30598;BME280;17365;48.878;8.334;2023-04-20T07:27:39;99848.19;;;8.59;62.76
30598;BME280;17365;48.878;8.334;2023-04-20T07:30:05;99846.78;;;7.82;64.00
30598;BME280;17365;48.878;8.334;2023-04-20T07:32:31;99850.53;;;8.25;63.50
30598;BME280;17365;48.878;8.334;2023-04-20T07:34:57;99840.44;;;8.57;63.03
30598;BME280;17365;48.878;8.334;2023-04-20T07:37:22;99830.25;;;8.94;62.79
30598;BME280;17365;48.878;8.334;2023-04-20T07:39:50;99825.94;;;8.88;60.60
30598;BME280;17365;48.878;8.334;2023-04-20T07:42:15;99826.88;;;9.13;60.28
30598;BME280;17365;48.878;8.334;2023-04-20T07:44:40;99829.38;;;8.89;61.46
30598;BME280;17365;48.878;8.334;2023-04-20T07:47:05;99831.16;;;8.96;61.71
30598;BME280;17365;48.878;8.334;2023-04-20T07:49:34;99833.69;;;8.93;60.00
30598;BME280;17365;48.878;8.334;2023-04-20T07:51:59;99825.94;;;8.88;60.68
30598;BME280;17365;48.878;8.334;2023-04-20T07:54:25;99834.59;;;8.98;61.06
30598;BME280;17365;48.878;8.334;2023-04-20T07:56:50;99830.34;;;9.14;59.25
30598;BME280;17365;48.878;8.334;2023-04-20T07:59:15;99820.03;;;9.37;57.84
30598;BME280;17365;48.878;8.334;2023-04-20T08:01:40;99820.03;;;9.30;57.26
30598;BME280;17365;48.878;8.334;2023-04-20T08:04:05;99818.31;;;9.51;57.25
30598;BME280;17365;48.878;8.334;2023-04-20T08:06:31;99820.06;;;9.72;58.43
30598;BME280;17365;48.878;8.334;2023-04-20T08:08:56;99821.81;;;9.54;59.71
30598;BME280;17365;48.878;8.334;2023-04-20T08:11:22;99810.56;;;9.57;59.40
30598;BME280;17365;48.878;8.334;2023-04-20T08:13:54;99805.41;;;9.54;59.46
30598;BME280;17365;48.878;8.334;2023-04-20T08:16:19;99803.69;;;9.70;59.87
30598;BME280;17365;48.878;8.334;2023-04-20T08:18:45;99801.97;;;9.67;60.28
30598;BME280;17365;48.878;8.334;2023-04-20T08:21:10;99802.81;;;9.81;60.01
30598;BME280;17365;48.878;8.334;2023-04-20T08:23:35;99801.09;;;9.86;59.21
30598;BME280;17365;48.878;8.334;2023-04-20T08:26:01;99795.91;;;9.80;59.54
30598;BME280;17365;48.878;8.334;2023-04-20T08:28:26;99792.44;;;9.95;59.65
30598;BME280;17365;48.878;8.334;2023-04-20T08:30:51;99803.66;;;9.73;60.32
30598;BME280;17365;48.878;8.334;2023-04-20T08:33:17;99795.03;;;9.68;59.76
30598;BME280;17365;48.878;8.334;2023-04-20T08:35:42;99795.00;;;10.07;59.66
30598;BME280;17365;48.878;8.334;2023-04-20T08:38:08;99797.63;;;9.90;59.21
30598;BME280;17365;48.878;8.334;2023-04-20T08:40:34;99784.69;;;9.75;59.38
30598;BME280;17365;48.878;8.334;2023-04-20T08:43:00;99790.72;;;9.80;59.26
30598;BME280;17365;48.878;8.334;2023-04-20T08:45:26;99781.19;;;10.13;59.07
30598;BME280;17365;48.878;8.334;2023-04-20T08:47:51;99782.94;;;9.99;58.54
30598;BME280;17365;48.878;8.334;2023-04-20T08:50:17;99788.97;;;10.16;57.57
30598;BME280;17365;48.878;8.334;2023-04-20T08:52:43;99782.91;;;10.06;56.80
30598;BME280;17365;48.878;8.334;2023-04-20T08:55:08;99781.22;;;9.99;56.17
30598;BME280;17365;48.878;8.334;2023-04-20T08:57:33;99788.09;;;10.06;56.49
30598;BME280;17365;48.878;8.334;2023-04-20T08:59:59;99781.19;;;10.31;56.41
30598;BME280;17365;48.878;8.334;2023-04-20T09:02:26;99781.13;;;10.49;55.95
30598;BME280;17365;48.878;8.334;2023-04-20T09:05:03;99781.97;;;10.52;55.65
30598;BME280;17365;48.878;8.334;2023-04-20T09:07:29;99790.69;;;10.34;55.01
30598;BME280;17365;48.878;8.334;2023-04-20T09:09:58;99775.84;;;10.74;54.38
30598;BME280;17365;48.878;8.334;2023-04-20T09:12:26;99786.06;;;11.07;54.21
30598;BME280;17365;48.878;8.334;2023-04-20T09:14:52;99767.19;;;10.78;54.22
30598;BME280;17365;48.878;8.334;2023-04-20T09:17:39;99766.25;;;10.91;54.01
30598;BME280;17365;48.878;8.334;2023-04-20T09:20:05;99767.94;;;11.01;53.59
30598;BME280;17365;48.878;8.334;2023-04-20T09:22:33;99766.25;;;10.94;54.44
30598;BME280;17365;48.878;8.334;2023-04-20T09:24:59;99762.81;;;10.89;53.61
30598;BME280;17365;48.878;8.334;2023-04-20T09:27:25;99764.50;;;10.93;53.53
30598;BME280;17365;48.878;8.334;2023-04-20T09:30:00;99769.75;;;10.86;52.88
30598;BME280;17365;48.878;8.334;2023-04-20T09:32:27;99754.09;;;10.98;52.88
30598;BME280;17365;48.878;8.334;2023-04-20T09:34:56;99754.50;;;11.64;51.05
30598;BME280;17365;48.878;8.334;2023-04-20T09:37:23;99772.13;;;11.25;52.20
30598;BME280;17365;48.878;8.334;2023-04-20T09:39:49;99768.66;;;11.25;51.76
30598;BME280;17365;48.878;8.334;2023-04-20T09:42:15;99748.84;;;11.13;51.57
30598;BME280;17365;48.878;8.334;2023-04-20T09:44:41;99768.59;;;11.37;51.56
30598;BME280;17365;48.878;8.334;2023-04-20T09:47:07;99759.13;;;11.25;51.54
30598;BME280;17365;48.878;8.334;2023-04-20T09:49:32;99752.19;;;11.29;51.83
30598;BME280;17365;48.878;8.334;2023-04-20T09:52:01;99751.19;;;11.44;51.63
30598;BME280;17365;48.878;8.334;2023-04-20T09:54:30;99747.69;;;11.52;50.95
30598;BME280;17365;48.878;8.334;2023-04-20T09:56:58;99745.94;;;11.51;51.09
30598;BME280;17365;48.878;8.334;2023-04-20T09:59:23;99749.31;;;11.62;50.95
30598;BME280;17365;48.878;8.334;2023-04-20T10:01:50;99747.84;;;11.31;51.45
30598;BME280;17365;48.878;8.334;2023-04-20T10:04:15;99750.44;;;11.29;51.74
30598;BME280;17365;48.878;8.334;2023-04-20T10:06:50;99759.88;;;11.41;51.52
30598;BME280;17365;48.878;8.334;2023-04-20T10:09:20;99749.50;;;11.41;51.67
30598;BME280;17365;48.878;8.334;2023-04-20T10:12:03;99755.75;;;11.14;52.79
30598;BME280;17365;48.878;8.334;2023-04-20T10:14:31;99753.16;;;11.09;53.15
30598;BME280;17365;48.878;8.334;2023-04-20T10:17:06;99756.59;;;11.18;53.40
30598;BME280;17365;48.878;8.334;2023-04-20T10:19:42;99747.56;;;11.68;52.16
30598;BME280;17365;48.878;8.334;2023-04-20T10:22:08;99748.25;;;11.91;52.05
30598;BME280;17365;48.878;8.334;2023-04-20T10:24:34;99753.81;;;11.45;54.64
30598;BME280;17365;48.878;8.334;2023-04-20T10:27:20;99745.13;;;11.49;53.66
30598;BME280;17365;48.878;8.334;2023-04-20T10:29:46;99744.31;;;11.44;53.62
30598;BME280;17365;48.878;8.334;2023-04-20T10:32:24;99731.13;;;11.64;52.80
30598;BME280;17365;48.878;8.334;2023-04-20T10:34:59;99738.75;;;11.87;52.54
30598;BME280;17365;48.878;8.334;2023-04-20T10:37:24;99744.91;;;11.80;52.49
30598;BME280;17365;48.878;8.334;2023-04-20T10:39:50;99738.19;;;11.50;53.41
30598;BME280;17365;48.878;8.334;2023-04-20T10:42:15;99734.59;;;11.63;52.92
30598;BME280;17365;48.878;8.334;2023-04-20T10:44:50;99739.69;;;11.80;53.09
30598;BME280;17365;48.878;8.334;2023-04-20T10:47:15;99727.47;;;11.89;52.04
30598;BME280;17365;48.878;8.334;2023-04-20T10:49:41;99732.00;;;11.63;53.71
30598;BME280;17365;48.878;8.334;2023-04-20T10:52:07;99740.91;;;11.33;54.25
30598;BME280;17365;48.878;8.334;2023-04-20T10:54:36;99733.03;;;11.42;53.49
30598;BME280;17365;48.878;8.334;2023-04-20T10:57:01;99738.13;;;11.57;53.35
30598;BME280;17365;48.878;8.334;2023-04-20T10:59:27;99744.13;;;11.67;52.60
30598;BME280;17365;48.878;8.334;2023-04-20T11:01:52;99727.81;;;11.48;53.36
30598;BME280;17365;48.878;8.334;2023-04-20T11:04:28;99725.41;;;11.19;53.53
30598;BME280;17365;48.878;8.334;2023-04-20T11:06:53;99718.72;;;11.97;52.38
30598;BME280;17365;48.878;8.334;2023-04-20T11:09:20;99706.53;;;12.03;51.72
30598;BME280;17365;48.878;8.334;2023-04-20T11:11:57;99712.31;;;11.36;52.94
30598;BME280;17365;48.878;8.334;2023-04-20T11:14:23;99729.09;;;12.01;52.00
30598;BME280;17365;48.878;8.334;2023-04-20T11:16:52;99712.72;;;11.93;50.88
30598;BME280;17365;48.878;8.334;2023-04-20T11:21:51;99709.25;;;12.65;49.86
30598;BME280;17365;48.878;8.334;2023-04-20T11:24:21;99706.13;;;12.40;50.81
30598;BME280;17365;48.878;8.334;2023-04-20T11:26:46;99699.78;;;12.61;49.44
30598;BME280;17365;48.878;8.334;2023-04-20T11:29:26;99707.00;;;13.03;49.97
30598;BME280;17365;48.878;8.334;2023-04-20T11:31:52;99696.22;;;12.66;49.35
30598;BME280;17365;48.878;8.334;2023-04-20T11:34:17;99704.56;;;12.22;50.03
30598;BME280;17365;48.878;8.334;2023-04-20T11:36:43;99702.22;;;12.73;49.48
30598;BME280;17365;48.878;8.334;2023-04-20T11:39:08;99715.94;;;12.16;51.13
30598;BME280;17365;48.878;8.334;2023-04-20T11:41:34;99695.78;;;12.34;50.81
30598;BME280;17365;48.878;8.334;2023-04-20T11:44:01;99696.13;;;12.03;53.52
30598;BME280;17365;48.878;8.334;2023-04-20T11:46:26;99696.63;;;12.34;51.71
30598;BME280;17365;48.878;8.334;2023-04-20T11:48:51;99703.75;;;12.20;52.49
30598;BME280;17365;48.878;8.334;2023-04-20T11:51:17;99709.75;;;12.27;50.55
30598;BME280;17365;48.878;8.334;2023-04-20T11:53:42;99700.31;;;12.18;49.49
30598;BME280;17365;48.878;8.334;2023-04-20T11:56:07;99692.97;;;12.50;50.04
30598;BME280;17365;48.878;8.334;2023-04-20T11:58:33;99697.78;;;12.81;49.84
30598;BME280;17365;48.878;8.334;2023-04-20T12:00:58;99696.91;;;12.11;52.06
30598;BME280;17365;48.878;8.334;2023-04-20T12:03:24;99701.97;;;12.25;53.13
30598;BME280;17365;48.878;8.334;2023-04-20T12:05:49;99693.13;;;12.38;52.25
30598;BME280;17365;48.878;8.334;2023-04-20T12:08:15;99688.75;;;12.40;53.30
30598;BME280;17365;48.878;8.334;2023-04-20T12:10:41;99692.56;;;12.13;53.23
30598;BME280;17365;48.878;8.334;2023-04-20T12:13:06;99689.41;;;12.56;52.24
30598;BME280;17365;48.878;8.334;2023-04-20T12:15:31;99687.56;;;11.93;53.41
30598;BME280;17365;48.878;8.334;2023-04-20T12:17:56;99692.53;;;12.16;53.19
30598;BME280;17365;48.878;8.334;2023-04-20T12:20:22;99691.19;;;11.80;53.59
30598;BME280;17365;48.878;8.334;2023-04-20T12:22:47;99697.75;;;12.13;53.03
30598;BME280;17365;48.878;8.334;2023-04-20T12:25:12;99678.16;;;11.83;52.43
30598;BME280;17365;48.878;8.334;2023-04-20T12:27:38;99686.97;;;11.64;53.21
30598;BME280;17365;48.878;8.334;2023-04-20T12:30:03;99684.94;;;11.95;52.53
30598;BME280;17365;48.878;8.334;2023-04-20T12:32:28;99686.09;;;11.66;52.68
30598;BME280;17365;48.878;8.334;2023-04-20T12:34:53;99681.69;;;11.73;53.10
30598;BME280;17365;48.878;8.334;2023-04-20T12:37:19;99695.00;;;11.38;54.31
30598;BME280;17365;48.878;8.334;2023-04-20T12:39:44;99684.75;;;11.17;54.45
30598;BME280;17365;48.878;8.334;2023-04-20T12:42:09;99678.13;;;10.77;56.27
30598;BME280;17365;48.878;8.334;2023-04-20T12:44:35;99696.06;;;11.08;54.77
30598;BME280;17365;48.878;8.334;2023-04-20T12:47:00;99671.91;;;11.03;54.85
30598;BME280;17365;48.878;8.334;2023-04-20T12:49:25;99674.38;;;11.17;54.72
30598;BME280;17365;48.878;8.334;2023-04-20T12:51:50;99681.28;;;11.19;55.57
30598;BME280;17365;48.878;8.334;2023-04-20T12:54:16;99691.50;;;11.39;54.27
30598;BME280;17365;48.878;8.334;2023-04-20T12:56:41;99677.88;;;11.09;54.88
30598;BME280;17365;48.878;8.334;2023-04-20T12:59:06;99687.38;;;11.14;55.44
30598;BME280;17365;48.878;8.334;2023-04-20T13:01:32;99691.69;;;11.18;56.24